Time,TemperatureF,DewpointF,PressureIn,WindDirection,WindDirectionDegrees,WindSpeedMPH,WindSpeedGustMPH,Humidity,HourlyPrecipIn,Conditions,Clouds,dailyrainin,SolarRadiationWatts/m^2,SoftwareType,DateUTC
2013-03-20 00:36:00,38.4,18.0,29.86,North,9,5.0,-999.0,44,-99.99,,,0.18,0,weatherlink.com 1.10,2013-03-20 04:36:00,
2013-03-20 00:51:00,37.7,18.0,29.86,West,281,5.0,-999.0,46,-99.99,,,0.18,0,weatherlink.com 1.10,2013-03-20 04:51:00,
2013-03-20 01:06:00,37.1,19.0,29.87,NW,304,2.0,-999.0,48,-99.99,,,0.18,0,weatherlink.com 1.10,2013-03-20 05:06:00,
2013-03-20 01:22:00,36.5,19.0,29.88,WNW,290,2.0,-999.0,50,-99.99,,,0.18,0,weatherlink.com 1.10,2013-03-20 05:22:00,
2013-03-20 01:36:00,36.2,20.0,29.88,NW,308,5.0,-999.0,52,-99.99,,,0.18,0,weatherlink.com 1.10,2013-03-20 05:36:00,
2013-03-20 02:06:00,35.6,20.0,29.90,WNW,288,3.0,-999.0,54,-99.99,,,0.00,0,weatherlink.com 1.10,2013-03-20 06:06:00,
2013-03-20 02:21:00,35.3,20.0,29.90,NW,315,4.0,-999.0,55,-99.99,,,0.00,0,weatherlink.com 1.10,2013-03-20 06:21:00,
2013-03-20 02:36:00,35.0,21.0,29.91,WSW,252,0.0,-999.0,56,-99.99,,,0.00,0,weatherlink.com 1.10,2013-03-20 06:36:00,
2013-03-20 02:51:00,34.7,20.0,29.91,WNW,298,3.0,-999.0,56,-99.99,,,0.00,0,weatherlink.com 1.10,2013-03-20 06:51:00,
2013-03-20 03:06:00,34.3,21.0,29.91,WNW,291,3.0,-999.0,58,-99.99,,,0.00,0,weatherlink.com 1.10,2013-03-20 07:06:00,
2013-03-20 03:21:00,33.9,21.0,29.91,WNW,300,4.0,-999.0,59,-99.99,,,0.00,0,weatherlink.com 1.10,2013-03-20 07:21:00,
2013-03-20 03:36:00,33.6,21.0,29.92,West,262,2.0,-999.0,60,-99.99,,,0.00,0,weatherlink.com 1.10,2013-03-20 07:36:00,
2013-03-20 03:52:00,33.6,20.0,29.92,WNW,303,3.0,-999.0,59,-99.99,,,0.00,0,weatherlink.com 1.10,2013-03-20 07:52:00,
2013-03-20 04:06:00,33.4,20.0,29.92,WSW,254,4.0,-999.0,59,-99.99,,,0.00,0,weatherlink.com 1.10,2013-03-20 08:06:00,
2013-03-20 04:21:00,33.3,20.0,29.92,West,273,2.0,-999.0,58,-99.99,,,0.00,0,weatherlink.com 1.10,2013-03-20 08:21:00,
2013-03-20 04:37:00,33.0,21.0,29.92,WSW,252,6.0,-999.0,61,-99.99,,,0.00,0,weatherlink.com 1.10,2013-03-20 08:37:00,
2013-03-20 04:52:00,32.9,21.0,29.93,West,273,3.0,-999.0,63,-99.99,,,0.00,0,weatherlink.com 1.10,2013-03-20 08:52:00,
2013-03-20 05:07:00,32.9,22.0,29.93,West,269,2.0,-999.0,64,-99.99,,,0.00,0,weatherlink.com 1.10,2013-03-20 09:07:00,
2013-03-20 05:22:00,32.6,22.0,29.93,WSW,247,2.0,-999.0,65,-99.99,,,0.00,0,weatherlink.com 1.10,2013-03-20 09:22:00,
2013-03-20 05:37:00,32.3,22.0,29.93,West,265,1.0,-999.0,65,-99.99,,,0.00,0,weatherlink.com 1.10,2013-03-20 09:37:00,
2013-03-20 05:52:00,32.3,21.0,29.92,West,263,4.0,-999.0,64,-99.99,,,0.00,0,weatherlink.com 1.10,2013-03-20 09:52:00,
2013-03-20 06:07:00,32.6,20.0,29.92,West,261,8.0,-999.0,61,-99.99,,,0.00,0,weatherlink.com 1.10,2013-03-20 10:07:00,
2013-03-20 06:22:00,32.4,20.0,29.92,WNW,286,4.0,-999.0,61,-99.99,,,0.00,0,weatherlink.com 1.10,2013-03-20 10:22:00,
2013-03-20 06:37:00,32.1,20.0,29.93,West,260,3.0,-999.0,62,-99.99,,,0.00,0,weatherlink.com 1.10,2013-03-20 10:37:00,
2013-03-20 07:07:00,31.4,20.0,29.92,WSW,242,0.0,-999.0,64,-99.99,,,0.00,7,weatherlink.com 1.10,2013-03-20 11:07:00,
2013-03-20 07:22:00,32.0,20.0,29.93,West,265,4.0,-999.0,61,-99.99,,,0.00,18,weatherlink.com 1.10,2013-03-20 11:22:00,
2013-03-20 07:37:00,32.5,20.0,29.93,West,263,3.0,-999.0,60,-99.99,,,0.00,46,weatherlink.com 1.10,2013-03-20 11:37:00,
2013-03-20 07:52:00,33.1,20.0,29.92,WNW,286,4.0,-999.0,59,-99.99,,,0.00,77,weatherlink.com 1.10,2013-03-20 11:52:00,
2013-03-20 08:07:00,33.7,20.0,29.92,West,275,3.0,-999.0,58,-99.99,,,0.00,47,weatherlink.com 1.10,2013-03-20 12:07:00,
2013-03-20 08:22:00,34.4,20.0,29.92,NW,315,4.0,-999.0,56,-99.99,,,0.00,51,weatherlink.com 1.10,2013-03-20 12:22:00,
2013-03-20 08:37:00,35.5,21.0,29.92,West,274,12.0,-999.0,55,-99.99,,,0.00,265,weatherlink.com 1.10,2013-03-20 12:37:00,
2013-03-20 08:53:00,36.6,20.0,29.92,WSW,252,4.0,-999.0,52,-99.99,,,0.00,320,weatherlink.com 1.10,2013-03-20 12:53:00,
2013-03-20 09:07:00,36.9,21.0,29.92,West,269,0.0,-999.0,53,-99.99,,,0.00,366,weatherlink.com 1.10,2013-03-20 13:07:00,
2013-03-20 09:22:00,37.3,21.0,29.92,WNW,298,7.0,-999.0,52,-99.99,,,0.00,413,weatherlink.com 1.10,2013-03-20 13:22:00,
2013-03-20 09:37:00,38.0,20.0,29.92,NW,318,5.0,-999.0,49,-99.99,,,0.00,461,weatherlink.com 1.10,2013-03-20 13:37:00,
2013-03-20 09:53:00,37.9,20.0,29.92,WSW,239,4.0,-999.0,48,-99.99,,,0.00,497,weatherlink.com 1.10,2013-03-20 13:53:00,
2013-03-20 10:08:00,38.8,20.0,29.92,West,265,3.0,-999.0,47,-99.99,,,0.00,548,weatherlink.com 1.10,2013-03-20 14:08:00,
2013-03-20 10:23:00,38.9,20.0,29.91,WNW,288,9.0,-999.0,47,-99.99,,,0.00,591,weatherlink.com 1.10,2013-03-20 14:23:00,
2013-03-20 10:38:00,39.9,21.0,29.92,West,267,11.0,-999.0,47,-99.99,,,0.00,622,weatherlink.com 1.10,2013-03-20 14:38:00,
2013-03-20 10:53:00,40.3,20.0,29.91,West,265,13.0,-999.0,45,-99.99,,,0.00,659,weatherlink.com 1.10,2013-03-20 14:53:00,
2013-03-20 11:08:00,40.2,20.0,29.91,WNW,295,4.0,-999.0,45,-99.99,,,0.00,694,weatherlink.com 1.10,2013-03-20 15:08:00,
2013-03-20 11:23:00,40.5,20.0,29.91,West,280,6.0,-999.0,44,-99.99,,,0.00,717,weatherlink.com 1.10,2013-03-20 15:23:00,
2013-03-20 11:38:00,41.1,19.0,29.90,West,265,5.0,-999.0,42,-99.99,,,0.00,747,weatherlink.com 1.10,2013-03-20 15:38:00,
2013-03-20 11:53:00,41.9,21.0,29.89,WNW,290,3.0,-999.0,43,-99.99,,,0.00,768,weatherlink.com 1.10,2013-03-20 15:53:00,
2013-03-20 12:08:00,42.7,20.0,29.90,NW,308,9.0,-999.0,41,-99.99,,,0.00,784,weatherlink.com 1.10,2013-03-20 16:08:00,
2013-03-20 12:23:00,43.3,21.0,29.89,SW,219,11.0,-999.0,42,-99.99,,,0.00,802,weatherlink.com 1.10,2013-03-20 16:23:00,
2013-03-20 12:38:00,43.9,20.0,29.89,West,265,9.0,-999.0,38,-99.99,,,0.00,807,weatherlink.com 1.10,2013-03-20 16:38:00,
2013-03-20 12:53:00,43.7,22.0,29.88,NW,326,8.0,-999.0,42,-99.99,,,0.00,812,weatherlink.com 1.10,2013-03-20 16:53:00,
2013-03-20 13:08:00,44.0,19.0,29.88,West,261,9.0,-999.0,37,-99.99,,,0.00,817,weatherlink.com 1.10,2013-03-20 17:08:00,
2013-03-20 13:23:00,43.9,21.0,29.87,WSW,250,9.0,-999.0,40,-99.99,,,0.00,809,weatherlink.com 1.10,2013-03-20 17:23:00,
2013-03-20 13:38:00,45.2,21.0,29.86,WNW,292,6.0,-999.0,39,-99.99,,,0.00,812,weatherlink.com 1.10,2013-03-20 17:38:00,
2013-03-20 13:53:00,45.2,21.0,29.86,West,273,11.0,-999.0,38,-99.99,,,0.00,795,weatherlink.com 1.10,2013-03-20 17:53:00,
2013-03-20 14:08:00,46.0,19.0,29.85,WSW,256,9.0,-999.0,34,-99.99,,,0.00,784,weatherlink.com 1.10,2013-03-20 18:08:00,
2013-03-20 14:23:00,46.3,22.0,29.84,West,271,7.0,-999.0,38,-99.99,,,0.00,789,weatherlink.com 1.10,2013-03-20 18:23:00,
2013-03-20 14:38:00,46.7,21.0,29.84,West,259,6.0,-999.0,37,-99.99,,,0.00,747,weatherlink.com 1.10,2013-03-20 18:38:00,
2013-03-20 14:53:00,46.8,21.0,29.83,WSW,257,11.0,-999.0,36,-99.99,,,0.00,135,weatherlink.com 1.10,2013-03-20 18:53:00,
2013-03-20 15:08:00,46.7,21.0,29.82,West,276,8.0,-999.0,37,-99.99,,,0.00,740,weatherlink.com 1.10,2013-03-20 19:08:00,
2013-03-20 15:23:00,47.9,21.0,29.83,WNW,289,14.0,-999.0,34,-99.99,,,0.00,805,weatherlink.com 1.10,2013-03-20 19:23:00,
2013-03-20 15:39:00,46.6,21.0,29.82,WSW,250,5.0,-999.0,37,-99.99,,,0.00,199,weatherlink.com 1.10,2013-03-20 19:39:00,
2013-03-20 16:09:00,46.3,21.0,29.82,West,268,10.0,-999.0,37,-99.99,,,0.00,206,weatherlink.com 1.10,2013-03-20 20:09:00,
2013-03-20 16:24:00,46.3,19.0,29.82,WSW,238,4.0,-999.0,34,-99.99,,,0.00,188,weatherlink.com 1.10,2013-03-20 20:24:00,
2013-03-20 16:39:00,46.6,19.0,29.81,West,261,13.0,-999.0,33,-99.99,,,0.00,239,weatherlink.com 1.10,2013-03-20 20:39:00,
2013-03-20 17:09:00,46.4,19.0,29.81,WSW,238,3.0,-999.0,34,-99.99,,,0.00,127,weatherlink.com 1.10,2013-03-20 21:09:00,
2013-03-20 17:24:00,46.9,20.0,29.81,WSW,244,7.0,-999.0,34,-99.99,,,0.00,248,weatherlink.com 1.10,2013-03-20 21:24:00,
2013-03-20 17:39:00,47.1,19.0,29.81,West,269,11.0,-999.0,33,-99.99,,,0.00,308,weatherlink.com 1.10,2013-03-20 21:39:00,
2013-03-20 17:54:00,46.0,18.0,29.81,WNW,295,5.0,-999.0,33,-99.99,,,0.00,62,weatherlink.com 1.10,2013-03-20 21:54:00,
2013-03-20 18:09:00,45.8,19.0,29.81,WNW,294,3.0,-999.0,34,-99.99,,,0.00,63,weatherlink.com 1.10,2013-03-20 22:09:00,
2013-03-20 18:24:00,45.8,19.0,29.81,SSW,208,4.0,-999.0,34,-99.99,,,0.00,67,weatherlink.com 1.10,2013-03-20 22:24:00,
2013-03-20 18:39:00,45.9,20.0,29.81,West,279,3.0,-999.0,35,-99.99,,,0.00,46,weatherlink.com 1.10,2013-03-20 22:39:00,
2013-03-20 18:54:00,45.4,19.0,29.81,WSW,258,2.0,-999.0,35,-99.99,,,0.00,18,weatherlink.com 1.10,2013-03-20 22:54:00,
2013-03-20 19:09:00,44.7,20.0,29.81,WNW,296,2.0,-999.0,37,-99.99,,,0.00,0,weatherlink.com 1.10,2013-03-20 23:09:00,
2013-03-20 19:24:00,44.0,19.0,29.81,WNW,296,0.0,-999.0,37,-99.99,,,0.00,0,weatherlink.com 1.10,2013-03-20 23:24:00,
2013-03-20 19:39:00,43.5,20.0,29.80,WNW,296,0.0,-999.0,39,-99.99,,,0.00,0,weatherlink.com 1.10,2013-03-20 23:39:00,
2013-03-20 19:54:00,42.4,21.0,29.81,WNW,296,0.0,-999.0,42,-99.99,,,0.00,0,weatherlink.com 1.10,2013-03-20 23:54:00,
2013-03-20 20:09:00,41.5,21.0,29.81,WNW,296,0.0,-999.0,44,-99.99,,,0.00,0,weatherlink.com 1.10,2013-03-21 00:09:00,
2013-03-20 20:24:00,41.1,21.0,29.81,WNW,296,0.0,-999.0,44,-99.99,,,0.00,0,weatherlink.com 1.10,2013-03-21 00:24:00,
2013-03-20 20:39:00,40.9,23.0,29.82,WNW,296,0.0,-999.0,50,-99.99,,,0.00,0,weatherlink.com 1.10,2013-03-21 00:39:00,
2013-03-20 20:54:00,40.4,23.0,29.82,WNW,296,0.0,-999.0,51,-99.99,,,0.00,0,weatherlink.com 1.10,2013-03-21 00:54:00,
2013-03-20 21:09:00,39.8,24.0,29.83,WNW,296,0.0,-999.0,54,-99.99,,,0.00,0,weatherlink.com 1.10,2013-03-21 01:09:00,
2013-03-20 21:24:00,39.5,24.0,29.82,WNW,296,0.0,-999.0,55,-99.99,,,0.00,0,weatherlink.com 1.10,2013-03-21 01:24:00,
2013-03-20 21:39:00,38.6,25.0,29.82,WNW,296,0.0,-999.0,59,-99.99,,,0.00,0,weatherlink.com 1.10,2013-03-21 01:39:00,
2013-03-20 21:54:00,37.5,25.0,29.82,WNW,296,0.0,-999.0,61,-99.99,,,0.00,0,weatherlink.com 1.10,2013-03-21 01:54:00,
2013-03-20 22:09:00,37.2,25.0,29.83,WNW,296,0.0,-999.0,62,-99.99,,,0.00,0,weatherlink.com 1.10,2013-03-21 02:09:00,
2013-03-20 22:24:00,37.0,26.0,29.83,WNW,296,2.0,-999.0,65,-99.99,,,0.00,0,weatherlink.com 1.10,2013-03-21 02:24:00,
2013-03-20 22:39:00,38.2,25.0,29.83,ENE,60,0.0,-999.0,59,-99.99,,,0.00,0,weatherlink.com 1.10,2013-03-21 02:39:00,
2013-03-20 22:54:00,38.6,26.0,29.83,ENE,60,0.0,-999.0,60,-99.99,,,0.00,0,weatherlink.com 1.10,2013-03-21 02:54:00,
2013-03-20 23:24:00,38.0,27.0,29.83,ENE,60,0.0,-999.0,65,-99.99,,,0.00,0,weatherlink.com 1.10,2013-03-21 03:24:00,
2013-03-20 23:39:00,36.8,26.0,29.83,ESE,106,0.0,-999.0,65,-99.99,,,0.00,0,weatherlink.com 1.10,2013-03-21 03:39:00,
2013-03-20 23:54:00,36.5,27.0,29.83,ESE,106,0.0,-999.0,69,-99.99,,,0.00,0,weatherlink.com 1.10,2013-03-21 03:54:00,